sensor_id;sensor_type;location;lat;lon;timestamp;pressure;altitude;pressure_sealevel;temperature;humidity
13367;BME280;6752;52.612;13.630;2022-07-21T00:04:55;100775.59;;;25.40;52.09
13367;BME280;6752;52.612;13.630;2022-07-21T00:09:58;100762.28;;;25.14;52.61
13367;BME280;6752;52.612;13.630;2022-07-21T00:15:04;100765.53;;;24.94;53.28
13367;BME280;6752;52.612;13.630;2022-07-21T00:20:06;100771.77;;;24.95;54.68
13367;BME280;6752;52.612;13.630;2022-07-21T00:25:08;100763.13;;;24.90;54.25
13367;BME280;6752;52.612;13.630;2022-07-21T00:30:10;100759.94;;;24.64;56.50
13367;BME280;6752;52.612;13.630;2022-07-21T00:35:12;100751.39;;;24.61;55.47
13367;BME280;6752;52.612;13.630;2022-07-21T00:40:14;100741.30;;;24.80;55.17
13367;BME280;6752;52.612;13.630;2022-07-21T00:45:20;100732.86;;;24.72;55.34
13367;BME280;6752;52.612;13.630;2022-07-21T00:50:22;100723.48;;;25.04;54.52
13367;BME280;6752;52.612;13.630;2022-07-21T00:55:24;100728.37;;;24.73;56.20
13367;BME280;6752;52.612;13.630;2022-07-21T01:00:27;100727.06;;;24.93;54.43
13367;BME280;6752;52.612;13.630;2022-07-21T01:05:32;100726.91;;;24.65;55.87
13367;BME280;6752;52.612;13.630;2022-07-21T01:10:34;100735.58;;;24.31;57.31
13367;BME280;6752;52.612;13.630;2022-07-21T01:15:39;100731.53;;;24.24;56.77
13367;BME280;6752;52.612;13.630;2022-07-21T01:20:42;100739.52;;;24.28;56.71
13367;BME280;6752;52.612;13.630;2022-07-21T01:25:48;100729.66;;;24.54;55.77
13367;BME280;6752;52.612;13.630;2022-07-21T01:30:51;100729.13;;;24.40;55.93
13367;BME280;6752;52.612;13.630;2022-07-21T01:35:59;100731.16;;;24.37;56.19
13367;BME280;6752;52.612;13.630;2022-07-21T01:41:01;100719.84;;;24.31;56.34
13367;BME280;6752;52.612;13.630;2022-07-21T01:46:21;100724.83;;;24.25;56.61
13367;BME280;6752;52.612;13.630;2022-07-21T01:51:24;100718.23;;;24.07;56.99
13367;BME280;6752;52.612;13.630;2022-07-21T01:56:29;100714.02;;;24.03;57.25
13367;BME280;6752;52.612;13.630;2022-07-21T02:01:32;100715.14;;;24.02;57.15
13367;BME280;6752;52.612;13.630;2022-07-21T02:06:37;100720.88;;;24.15;56.83
13367;BME280;6752;52.612;13.630;2022-07-21T02:11:39;100715.56;;;24.02;57.28
13367;BME280;6752;52.612;13.630;2022-07-21T02:16:44;100715.13;;;23.88;57.97
13367;BME280;6752;52.612;13.630;2022-07-21T02:21:47;100709.38;;;23.98;57.35
13367;BME280;6752;52.612;13.630;2022-07-21T02:27:01;100718.86;;;23.77;58.43
13367;BME280;6752;52.612;13.630;2022-07-21T02:32:03;100706.52;;;23.60;58.70
13367;BME280;6752;52.612;13.630;2022-07-21T02:37:07;100709.91;;;23.63;58.48
13367;BME280;6752;52.612;13.630;2022-07-21T02:42:10;100714.40;;;23.62;58.62
13367;BME280;6752;52.612;13.630;2022-07-21T02:47:15;100705.73;;;23.56;58.97
13367;BME280;6752;52.612;13.630;2022-07-21T02:52:18;100701.02;;;23.54;59.04
13367;BME280;6752;52.612;13.630;2022-07-21T02:57:23;100714.10;;;23.47;59.75
13367;BME280;6752;52.612;13.630;2022-07-21T03:02:26;100709.97;;;23.21;60.26
13367;BME280;6752;52.612;13.630;2022-07-21T03:07:31;100707.52;;;23.34;60.73
13367;BME280;6752;52.612;13.630;2022-07-21T03:12:33;100702.42;;;23.71;58.85
13367;BME280;6752;52.612;13.630;2022-07-21T03:17:39;100697.86;;;23.61;59.03
13367;BME280;6752;52.612;13.630;2022-07-21T03:22:41;100697.57;;;23.76;58.79
13367;BME280;6752;52.612;13.630;2022-07-21T03:27:46;100695.70;;;23.85;58.63
13367;BME280;6752;52.612;13.630;2022-07-21T03:32:49;100684.11;;;23.88;58.58
13367;BME280;6752;52.612;13.630;2022-07-21T03:37:58;100694.17;;;24.00;58.41
13367;BME280;6752;52.612;13.630;2022-07-21T03:43:18;100680.29;;;24.04;58.84
13367;BME280;6752;52.612;13.630;2022-07-21T03:48:38;100693.41;;;23.90;59.75
13367;BME280;6752;52.612;13.630;2022-07-21T03:53:41;100714.57;;;24.09;59.10
13367;BME280;6752;52.612;13.630;2022-07-21T03:58:43;100722.52;;;24.02;59.55
13367;BME280;6752;52.612;13.630;2022-07-21T04:03:45;100710.66;;;24.17;58.73
13367;BME280;6752;52.612;13.630;2022-07-21T04:08:48;100710.47;;;24.13;59.13
13367;BME280;6752;52.612;13.630;2022-07-21T04:13:50;100712.41;;;24.06;59.50
13367;BME280;6752;52.612;13.630;2022-07-21T04:18:53;100704.69;;;24.37;58.63
13367;BME280;6752;52.612;13.630;2022-07-21T04:23:55;100710.70;;;24.35;59.12
13367;BME280;6752;52.612;13.630;2022-07-21T04:28:57;100725.99;;;24.38;60.10
13367;BME280;6752;52.612;13.630;2022-07-21T04:34:00;100739.22;;;24.23;61.17
13367;BME280;6752;52.612;13.630;2022-07-21T04:39:03;100738.84;;;24.54;60.17
13367;BME280;6752;52.612;13.630;2022-07-21T04:44:05;100747.67;;;24.52;61.70
13367;BME280;6752;52.612;13.630;2022-07-21T04:49:08;100744.23;;;24.69;60.90
13367;BME280;6752;52.612;13.630;2022-07-21T04:54:10;100755.05;;;24.95;60.93
13367;BME280;6752;52.612;13.630;2022-07-21T04:59:13;100757.68;;;25.25;60.17
13367;BME280;6752;52.612;13.630;2022-07-21T05:04:15;100770.52;;;25.42;60.78
13367;BME280;6752;52.612;13.630;2022-07-21T05:09:17;100770.52;;;25.95;59.78
13367;BME280;6752;52.612;13.630;2022-07-21T05:14:20;100767.20;;;26.04;59.90
13367;BME280;6752;52.612;13.630;2022-07-21T05:19:22;100770.45;;;26.17;60.44
13367;BME280;6752;52.612;13.630;2022-07-21T05:24:24;100775.67;;;25.75;60.00
13367;BME280;6752;52.612;13.630;2022-07-21T05:29:27;100773.82;;;26.01;59.67
13367;BME280;6752;52.612;13.630;2022-07-21T05:34:32;100778.37;;;26.48;57.33
13367;BME280;6752;52.612;13.630;2022-07-21T05:39:34;100780.55;;;26.73;56.47
13367;BME280;6752;52.612;13.630;2022-07-21T05:44:36;100789.55;;;26.76;57.52
13367;BME280;6752;52.612;13.630;2022-07-21T05:49:39;100793.98;;;26.49;57.46
13367;BME280;6752;52.612;13.630;2022-07-21T05:54:41;100786.89;;;27.21;57.00
13367;BME280;6752;52.612;13.630;2022-07-21T05:59:47;100808.05;;;26.88;58.24
13367;BME280;6752;52.612;13.630;2022-07-21T06:04:46;100807.94;;;27.28;58.26
13367;BME280;6752;52.612;13.630;2022-07-21T06:09:48;100824.75;;;26.82;60.27
13367;BME280;6752;52.612;13.630;2022-07-21T06:14:51;100837.13;;;26.98;60.20
13367;BME280;6752;52.612;13.630;2022-07-21T06:19:53;100837.55;;;27.11;60.30
13367;BME280;6752;52.612;13.630;2022-07-21T06:24:59;100841.24;;;27.61;59.80
13367;BME280;6752;52.612;13.630;2022-07-21T06:30:02;100846.85;;;27.18;61.53
13367;BME280;6752;52.612;13.630;2022-07-21T06:35:04;100848.84;;;27.74;61.55
13367;BME280;6752;52.612;13.630;2022-07-21T06:40:07;100848.59;;;28.05;59.72
13367;BME280;6752;52.612;13.630;2022-07-21T06:45:09;100850.37;;;27.94;59.45
13367;BME280;6752;52.612;13.630;2022-07-21T06:50:11;100862.12;;;28.03;59.84
13367;BME280;6752;52.612;13.630;2022-07-21T06:55:19;100860.27;;;28.96;57.43
13367;BME280;6752;52.612;13.630;2022-07-21T07:00:23;100855.25;;;29.37;56.50
13367;BME280;6752;52.612;13.630;2022-07-21T07:05:29;100862.52;;;28.92;56.15
13367;BME280;6752;52.612;13.630;2022-07-21T07:10:32;100861.37;;;29.24;56.87
13367;BME280;6752;52.612;13.630;2022-07-21T07:15:41;100870.33;;;29.28;56.22
13367;BME280;6752;52.612;13.630;2022-07-21T07:20:43;100874.22;;;29.94;55.04
13367;BME280;6752;52.612;13.630;2022-07-21T07:25:46;100884.48;;;29.00;56.62
13367;BME280;6752;52.612;13.630;2022-07-21T07:30:48;100868.45;;;30.23;53.09
13367;BME280;6752;52.612;13.630;2022-07-21T07:35:51;100869.57;;;30.21;53.59
13367;BME280;6752;52.612;13.630;2022-07-21T07:40:53;100877.74;;;30.42;54.47
13367;BME280;6752;52.612;13.630;2022-07-21T07:45:56;100889.30;;;30.10;53.50
13367;BME280;6752;52.612;13.630;2022-07-21T07:50:58;100883.94;;;30.64;53.02
13367;BME280;6752;52.612;13.630;2022-07-21T07:56:05;100904.55;;;31.11;52.36
13367;BME280;6752;52.612;13.630;2022-07-21T08:01:07;100902.11;;;30.67;52.47
13367;BME280;6752;52.612;13.630;2022-07-21T08:06:10;100911.34;;;31.35;52.11
13367;BME280;6752;52.612;13.630;2022-07-21T08:11:12;100908.94;;;31.35;50.53
13367;BME280;6752;52.612;13.630;2022-07-21T08:16:18;100909.25;;;31.86;50.14
13367;BME280;6752;52.612;13.630;2022-07-21T08:21:20;100915.70;;;31.52;49.60
13367;BME280;6752;52.612;13.630;2022-07-21T08:26:25;100907.78;;;32.73;47.85
13367;BME280;6752;52.612;13.630;2022-07-21T08:31:28;100922.63;;;32.11;49.73
13367;BME280;6752;52.612;13.630;2022-07-21T08:36:30;100923.73;;;31.78;49.68
13367;BME280;6752;52.612;13.630;2022-07-21T08:41:32;100914.59;;;33.04;48.72
13367;BME280;6752;52.612;13.630;2022-07-21T08:46:35;100917.61;;;32.63;48.18
13367;BME280;6752;52.612;13.630;2022-07-21T08:51:37;100915.11;;;33.00;47.88
13367;BME280;6752;52.612;13.630;2022-07-21T08:56:40;100914.33;;;32.38;48.03
13367;BME280;6752;52.612;13.630;2022-07-21T09:01:42;100924.53;;;33.23;47.82
13367;BME280;6752;52.612;13.630;2022-07-21T09:06:58;100915.44;;;32.73;47.89
13367;BME280;6752;52.612;13.630;2022-07-21T09:11:59;100916.53;;;32.01;48.49
13367;BME280;6752;52.612;13.630;2022-07-21T09:17:04;100920.23;;;31.63;50.10
13367;BME280;6752;52.612;13.630;2022-07-21T09:22:07;100926.80;;;32.90;48.07
13367;BME280;6752;52.612;13.630;2022-07-21T09:27:10;100926.48;;;32.04;49.43
13367;BME280;6752;52.612;13.630;2022-07-21T09:32:27;100930.72;;;31.90;49.58
13367;BME280;6752;52.612;13.630;2022-07-21T09:37:30;100933.11;;;32.40;48.72
13367;BME280;6752;52.612;13.630;2022-07-21T09:42:33;100925.41;;;32.45;47.95
13367;BME280;6752;52.612;13.630;2022-07-21T09:47:35;100936.78;;;33.56;47.94
13367;BME280;6752;52.612;13.630;2022-07-21T09:52:37;100935.67;;;32.90;48.17
13367;BME280;6752;52.612;13.630;2022-07-21T09:57:38;100926.64;;;33.53;45.94
13367;BME280;6752;52.612;13.630;2022-07-21T10:02:42;100925.46;;;34.02;44.37
13367;BME280;6752;52.612;13.630;2022-07-21T10:07:44;100925.95;;;34.48;43.44
13367;BME280;6752;52.612;13.630;2022-07-21T10:12:45;100931.34;;;35.29;43.13
13367;BME280;6752;52.612;13.630;2022-07-21T10:17:48;100946.30;;;34.14;44.20
13367;BME280;6752;52.612;13.630;2022-07-21T10:23:10;100946.00;;;33.10;46.25
13367;BME280;6752;52.612;13.630;2022-07-21T10:28:18;100951.61;;;33.16;46.89
13367;BME280;6752;52.612;13.630;2022-07-21T10:33:20;100963.16;;;33.35;46.52
13367;BME280;6752;52.612;13.630;2022-07-21T10:38:26;100955.50;;;33.82;45.41
13367;BME280;6752;52.612;13.630;2022-07-21T10:53:44;100958.26;;;32.53;46.58
13367;BME280;6752;52.612;13.630;2022-07-21T10:58:47;100966.83;;;32.34;46.96
13367;BME280;6752;52.612;13.630;2022-07-21T11:04:05;100977.25;;;32.18;47.49
13367;BME280;6752;52.612;13.630;2022-07-21T11:09:15;100974.97;;;32.30;47.12
13367;BME280;6752;52.612;13.630;2022-07-21T11:19:03;100969.66;;;32.20;46.91
13367;BME280;6752;52.612;13.630;2022-07-21T11:24:05;100974.34;;;32.16;47.18
13367;BME280;6752;52.612;13.630;2022-07-21T11:29:07;100977.69;;;31.92;48.46
13367;BME280;6752;52.612;13.630;2022-07-21T11:34:10;100980.52;;;31.60;48.39
13367;BME280;6752;52.612;13.630;2022-07-21T11:39:14;100969.37;;;31.76;47.95
13367;BME280;6752;52.612;13.630;2022-07-21T11:44:21;100960.09;;;32.03;47.70
13367;BME280;6752;52.612;13.630;2022-07-21T11:49:20;100968.13;;;32.45;47.44
13367;BME280;6752;52.612;13.630;2022-07-21T11:54:27;100971.12;;;31.62;49.28
13367;BME280;6752;52.612;13.630;2022-07-21T11:59:25;100982.66;;;31.83;48.15
13367;BME280;6752;52.612;13.630;2022-07-21T12:04:38;100978.02;;;32.03;48.29
13367;BME280;6752;52.612;13.630;2022-07-21T12:09:30;100967.18;;;32.47;46.28
13367;BME280;6752;52.612;13.630;2022-07-21T12:14:39;100969.63;;;32.48;48.11
13367;BME280;6752;52.612;13.630;2022-07-21T12:19:41;100963.31;;;31.96;47.29
13367;BME280;6752;52.612;13.630;2022-07-21T12:24:54;100950.89;;;31.84;47.49
13367;BME280;6752;52.612;13.630;2022-07-21T12:29:55;100947.58;;;31.95;48.33
13367;BME280;6752;52.612;13.630;2022-07-21T12:34:57;100957.38;;;31.79;48.35
13367;BME280;6752;52.612;13.630;2022-07-21T12:40:00;100960.56;;;31.08;49.45
13367;BME280;6752;52.612;13.630;2022-07-21T12:45:16;100961.17;;;31.46;48.61
13367;BME280;6752;52.612;13.630;2022-07-21T12:50:18;100958.50;;;30.95;49.70
13367;BME280;6752;52.612;13.630;2022-07-21T12:55:20;100971.70;;;30.80;50.04
13367;BME280;6752;52.612;13.630;2022-07-21T13:00:23;100967.64;;;31.16;49.55
13367;BME280;6752;52.612;13.630;2022-07-21T13:05:26;100974.08;;;30.51;50.74
13367;BME280;6752;52.612;13.630;2022-07-21T13:10:28;100981.61;;;30.37;51.18
13367;BME280;6752;52.612;13.630;2022-07-21T13:15:31;100973.91;;;30.07;51.65
13367;BME280;6752;52.612;13.630;2022-07-21T13:20:33;100991.35;;;29.50;53.23
13367;BME280;6752;52.612;13.630;2022-07-21T13:25:36;100988.86;;;29.94;53.97
13367;BME280;6752;52.612;13.630;2022-07-21T13:30:38;100998.16;;;29.55;54.17
13367;BME280;6752;52.612;13.630;2022-07-21T13:35:41;101004.91;;;29.29;54.58
13367;BME280;6752;52.612;13.630;2022-07-21T13:40:43;101008.02;;;29.02;55.65
13367;BME280;6752;52.612;13.630;2022-07-21T13:45:48;101010.03;;;28.20;61.09
13367;BME280;6752;52.612;13.630;2022-07-21T13:50:51;100989.59;;;28.07;63.79
13367;BME280;6752;52.612;13.630;2022-07-21T13:55:53;100995.55;;;27.75;70.39
13367;BME280;6752;52.612;13.630;2022-07-21T14:00:55;100973.50;;;27.45;70.38
13367;BME280;6752;52.612;13.630;2022-07-21T14:05:58;100974.73;;;27.55;71.07
13367;BME280;6752;52.612;13.630;2022-07-21T14:11:00;100992.09;;;26.97;75.08
13367;BME280;6752;52.612;13.630;2022-07-21T14:16:03;100969.39;;;27.47;71.62
13367;BME280;6752;52.612;13.630;2022-07-21T14:21:05;100986.89;;;27.04;77.03
13367;BME280;6752;52.612;13.630;2022-07-21T14:26:08;100980.05;;;26.37;81.12
13367;BME280;6752;52.612;13.630;2022-07-21T14:31:10;101007.31;;;25.59;87.89
13367;BME280;6752;52.612;13.630;2022-07-21T14:36:17;101000.05;;;25.65;88.90
13367;BME280;6752;52.612;13.630;2022-07-21T14:41:15;100989.58;;;25.53;91.20
13367;BME280;6752;52.612;13.630;2022-07-21T14:46:35;100988.05;;;25.15;96.68
13367;BME280;6752;52.612;13.630;2022-07-21T14:51:41;101000.19;;;25.46;92.59
13367;BME280;6752;52.612;13.630;2022-07-21T14:56:44;101003.39;;;25.78;93.21
13367;BME280;6752;52.612;13.630;2022-07-21T15:01:46;101016.14;;;26.00;92.35
13367;BME280;6752;52.612;13.630;2022-07-21T15:06:49;101008.12;;;25.74;92.68
13367;BME280;6752;52.612;13.630;2022-07-21T15:11:51;101000.67;;;26.16;89.97
13367;BME280;6752;52.612;13.630;2022-07-21T15:16:53;101006.50;;;26.78;87.07
13367;BME280;6752;52.612;13.630;2022-07-21T15:21:56;100990.98;;;27.68;82.23
13367;BME280;6752;52.612;13.630;2022-07-21T15:26:58;100981.24;;;27.61;77.95
13367;BME280;6752;52.612;13.630;2022-07-21T15:32:00;100975.78;;;27.02;79.53
13367;BME280;6752;52.612;13.630;2022-07-21T15:37:05;100973.00;;;26.55;79.65
13367;BME280;6752;52.612;13.630;2022-07-21T15:42:08;100964.52;;;27.04;76.96
13367;BME280;6752;52.612;13.630;2022-07-21T15:47:10;100964.61;;;27.56;74.63
13367;BME280;6752;52.612;13.630;2022-07-21T15:52:12;100967.93;;;27.88;74.28
13367;BME280;6752;52.612;13.630;2022-07-21T15:57:15;100965.66;;;28.95;68.67
13367;BME280;6752;52.612;13.630;2022-07-21T16:02:17;100966.23;;;28.63;69.39
13367;BME280;6752;52.612;13.630;2022-07-21T16:07:24;100964.36;;;28.80;70.57
13367;BME280;6752;52.612;13.630;2022-07-21T16:12:29;100957.23;;;28.72;69.77
13367;BME280;6752;52.612;13.630;2022-07-21T16:23:29;100954.41;;;28.53;66.90
13367;BME280;6752;52.612;13.630;2022-07-21T16:28:31;100963.14;;;28.28;68.75
13367;BME280;6752;52.612;13.630;2022-07-21T16:33:36;100956.67;;;28.45;67.75
13367;BME280;6752;52.612;13.630;2022-07-21T16:38:39;100957.13;;;27.89;69.80
13367;BME280;6752;52.612;13.630;2022-07-21T16:43:41;100949.27;;;28.14;69.25
13367;BME280;6752;52.612;13.630;2022-07-21T16:48:46;100945.12;;;27.97;69.34
13367;BME280;6752;52.612;13.630;2022-07-21T16:53:48;100949.80;;;27.47;70.52
13367;BME280;6752;52.612;13.630;2022-07-21T16:58:50;100947.84;;;27.78;71.18
13367;BME280;6752;52.612;13.630;2022-07-21T17:03:53;100941.75;;;27.80;70.18
13367;BME280;6752;52.612;13.630;2022-07-21T17:08:55;100939.86;;;27.78;70.43
13367;BME280;6752;52.612;13.630;2022-07-21T17:13:58;100937.48;;;27.70;70.71
13367;BME280;6752;52.612;13.630;2022-07-21T17:19:00;100928.86;;;27.62;70.11
13367;BME280;6752;52.612;13.630;2022-07-21T17:24:03;100907.63;;;27.56;71.63
13367;BME280;6752;52.612;13.630;2022-07-21T17:29:06;100914.14;;;27.46;71.49
13367;BME280;6752;52.612;13.630;2022-07-21T17:34:08;100902.43;;;27.31;72.03
13367;BME280;6752;52.612;13.630;2022-07-21T17:39:11;100906.22;;;27.22;72.74
13367;BME280;6752;52.612;13.630;2022-07-21T17:44:13;100895.73;;;27.16;72.81
13367;BME280;6752;52.612;13.630;2022-07-21T17:49:15;100905.53;;;26.92;73.87
13367;BME280;6752;52.612;13.630;2022-07-21T17:54:19;100897.87;;;26.62;76.63
13367;BME280;6752;52.612;13.630;2022-07-21T17:59:21;100891.45;;;26.82;74.34
13367;BME280;6752;52.612;13.630;2022-07-21T18:04:24;100892.70;;;26.63;75.82
13367;BME280;6752;52.612;13.630;2022-07-21T18:09:26;100898.53;;;26.59;76.47
13367;BME280;6752;52.612;13.630;2022-07-21T18:14:29;100898.44;;;26.38;76.77
13367;BME280;6752;52.612;13.630;2022-07-21T18:19:32;100896.19;;;26.26;78.58
13367;BME280;6752;52.612;13.630;2022-07-21T18:24:34;100899.20;;;26.18;79.24
13367;BME280;6752;52.612;13.630;2022-07-21T18:29:37;100901.75;;;26.17;78.56
13367;BME280;6752;52.612;13.630;2022-07-21T18:34:39;100896.97;;;26.13;76.27
13367;BME280;6752;52.612;13.630;2022-07-21T18:39:41;100897.77;;;25.83;81.10
13367;BME280;6752;52.612;13.630;2022-07-21T18:44:44;100901.36;;;25.79;80.59
13367;BME280;6752;52.612;13.630;2022-07-21T18:49:46;100901.11;;;25.71;81.56
13367;BME280;6752;52.612;13.630;2022-07-21T18:54:49;100896.50;;;25.53;83.45
13367;BME280;6752;52.612;13.630;2022-07-21T18:59:51;100907.75;;;25.62;82.50
13367;BME280;6752;52.612;13.630;2022-07-21T19:04:54;100923.14;;;25.48;83.25
13367;BME280;6752;52.612;13.630;2022-07-21T19:09:56;100930.31;;;25.27;85.81
13367;BME280;6752;52.612;13.630;2022-07-21T19:15:00;100943.99;;;25.14;86.35
13367;BME280;6752;52.612;13.630;2022-07-21T19:20:02;100944.92;;;25.17;86.97
13367;BME280;6752;52.612;13.630;2022-07-21T19:25:07;100958.00;;;25.12;87.20
13367;BME280;6752;52.612;13.630;2022-07-21T19:30:13;100970.43;;;25.03;87.41
13367;BME280;6752;52.612;13.630;2022-07-21T19:35:15;100964.36;;;24.99;87.64
13367;BME280;6752;52.612;13.630;2022-07-21T19:40:21;100975.80;;;24.86;88.82
13367;BME280;6752;52.612;13.630;2022-07-21T19:45:23;100967.20;;;24.62;93.80
13367;BME280;6752;52.612;13.630;2022-07-21T19:50:26;100985.84;;;24.06;99.48
13367;BME280;6752;52.612;13.630;2022-07-21T19:55:28;100991.02;;;23.27;100.00
13367;BME280;6752;52.612;13.630;2022-07-21T20:00:34;100980.38;;;23.23;100.00
13367;BME280;6752;52.612;13.630;2022-07-21T20:05:33;100963.16;;;23.21;100.00
13367;BME280;6752;52.612;13.630;2022-07-21T20:10:39;100945.11;;;23.77;100.00
13367;BME280;6752;52.612;13.630;2022-07-21T20:15:45;100954.19;;;23.54;100.00
13367;BME280;6752;52.612;13.630;2022-07-21T20:20:49;100958.95;;;23.42;100.00
13367;BME280;6752;52.612;13.630;2022-07-21T20:25:54;100965.38;;;23.40;100.00
13367;BME280;6752;52.612;13.630;2022-07-21T20:30:57;100963.28;;;23.32;100.00
13367;BME280;6752;52.612;13.630;2022-07-21T20:36:03;100959.15;;;23.17;100.00
13367;BME280;6752;52.612;13.630;2022-07-21T20:41:06;100950.46;;;23.24;100.00
13367;BME280;6752;52.612;13.630;2022-07-21T20:46:09;100951.89;;;23.31;100.00
13367;BME280;6752;52.612;13.630;2022-07-21T20:51:11;100942.42;;;23.10;100.00
13367;BME280;6752;52.612;13.630;2022-07-21T20:56:17;100947.51;;;22.56;100.00
13367;BME280;6752;52.612;13.630;2022-07-21T21:01:20;100945.87;;;22.64;100.00
13367;BME280;6752;52.612;13.630;2022-07-21T21:06:23;100952.73;;;22.74;100.00
13367;BME280;6752;52.612;13.630;2022-07-21T21:11:26;100948.70;;;22.49;100.00
13367;BME280;6752;52.612;13.630;2022-07-21T21:16:30;100957.81;;;22.64;100.00
13367;BME280;6752;52.612;13.630;2022-07-21T21:21:37;100959.30;;;22.71;100.00
13367;BME280;6752;52.612;13.630;2022-07-21T21:26:35;100956.98;;;22.26;100.00
13367;BME280;6752;52.612;13.630;2022-07-21T21:31:39;100950.58;;;22.54;100.00
13367;BME280;6752;52.612;13.630;2022-07-21T21:36:41;100949.37;;;22.63;100.00
13367;BME280;6752;52.612;13.630;2022-07-21T21:41:44;100950.20;;;22.51;100.00
13367;BME280;6752;52.612;13.630;2022-07-21T21:46:48;100942.78;;;22.42;99.47
13367;BME280;6752;52.612;13.630;2022-07-21T21:51:50;100941.33;;;22.35;98.94
13367;BME280;6752;52.612;13.630;2022-07-21T21:56:58;100944.76;;;22.27;99.29
13367;BME280;6752;52.612;13.630;2022-07-21T22:02:00;100947.27;;;21.89;100.00
13367;BME280;6752;52.612;13.630;2022-07-21T22:07:05;100946.83;;;21.91;100.00
13367;BME280;6752;52.612;13.630;2022-07-21T22:12:08;100937.98;;;22.09;100.00
13367;BME280;6752;52.612;13.630;2022-07-21T22:17:13;100952.02;;;22.03;100.00
13367;BME280;6752;52.612;13.630;2022-07-21T22:22:16;100954.07;;;21.48;100.00
13367;BME280;6752;52.612;13.630;2022-07-21T22:27:19;100958.46;;;21.93;100.00
13367;BME280;6752;52.612;13.630;2022-07-21T22:32:22;100966.52;;;21.92;100.00
13367;BME280;6752;52.612;13.630;2022-07-21T22:37:24;100963.36;;;21.89;100.00
13367;BME280;6752;52.612;13.630;2022-07-21T22:42:35;100964.14;;;21.75;100.00
13367;BME280;6752;52.612;13.630;2022-07-21T22:47:41;100971.88;;;21.84;100.00
13367;BME280;6752;52.612;13.630;2022-07-21T22:52:46;100970.27;;;21.72;100.00
13367;BME280;6752;52.612;13.630;2022-07-21T22:57:49;100969.08;;;21.86;100.00
13367;BME280;6752;52.612;13.630;2022-07-21T23:02:51;100962.70;;;21.66;100.00
13367;BME280;6752;52.612;13.630;2022-07-21T23:07:57;100958.02;;;21.81;100.00
13367;BME280;6752;52.612;13.630;2022-07-21T23:13:01;100963.09;;;21.69;100.00
13367;BME280;6752;52.612;13.630;2022-07-21T23:18:07;100963.48;;;21.72;99.73
13367;BME280;6752;52.612;13.630;2022-07-21T23:23:12;100964.19;;;21.48;100.00
13367;BME280;6752;52.612;13.630;2022-07-21T23:28:17;100968.80;;;21.11;100.00
13367;BME280;6752;52.612;13.630;2022-07-21T23:33:24;100978.66;;;21.08;100.00
13367;BME280;6752;52.612;13.630;2022-07-21T23:38:31;100984.19;;;21.05;100.00
13367;BME280;6752;52.612;13.630;2022-07-21T23:43:36;100982.66;;;21.11;100.00
13367;BME280;6752;52.612;13.630;2022-07-21T23:48:39;100985.25;;;21.20;100.00
13367;BME280;6752;52.612;13.630;2022-07-21T23:53:41;100984.14;;;21.21;100.00
13367;BME280;6752;52.612;13.630;2022-07-21T23:58:44;100978.46;;;21.24;100.00
